sensor_id;sensor_type;location;lat;lon;timestamp;temperature;humidity
13091;DHT22;6611;52.604;13.438;2023-07-13T00:01:30;18.05;69.85
13091;DHT22;6611;52.604;13.438;2023-07-13T00:06:32;18.02;69.62
13091;DHT22;6611;52.604;13.438;2023-07-13T00:11:35;18.12;69.44
13091;DHT22;6611;52.604;13.438;2023-07-13T00:16:39;18.12;69.18
13091;DHT22;6611;52.604;13.438;2023-07-13T00:21:41;18.09;69.58
13091;DHT22;6611;52.604;13.438;2023-07-13T00:26:43;17.95;70.02
13091;DHT22;6611;52.604;13.438;2023-07-13T00:31:47;17.84;69.93
13091;DHT22;6611;52.604;13.438;2023-07-13T00:36:49;17.74;70.39
13091;DHT22;6611;52.604;13.438;2023-07-13T00:41:50;17.61;71.06
13091;DHT22;6611;52.604;13.438;2023-07-13T00:46:54;17.46;71.74
13091;DHT22;6611;52.604;13.438;2023-07-13T00:51:58;17.30;72.28
13091;DHT22;6611;52.604;13.438;2023-07-13T00:57:05;17.22;72.31
13091;DHT22;6611;52.604;13.438;2023-07-13T01:02:09;17.20;72.72
13091;DHT22;6611;52.604;13.438;2023-07-13T01:07:12;17.12;73.04
13091;DHT22;6611;52.604;13.438;2023-07-13T01:12:14;16.96;73.37
13091;DHT22;6611;52.604;13.438;2023-07-13T01:17:17;17.04;73.23
13091;DHT22;6611;52.604;13.438;2023-07-13T01:22:20;17.11;72.89
13091;DHT22;6611;52.604;13.438;2023-07-13T01:27:26;16.87;73.61
13091;DHT22;6611;52.604;13.438;2023-07-13T01:32:28;16.81;74.05
13091;DHT22;6611;52.604;13.438;2023-07-13T01:37:33;16.64;74.51
13091;DHT22;6611;52.604;13.438;2023-07-13T01:42:37;16.52;74.84
13091;DHT22;6611;52.604;13.438;2023-07-13T01:47:38;16.53;74.74
13091;DHT22;6611;52.604;13.438;2023-07-13T01:52:42;16.53;75.07
13091;DHT22;6611;52.604;13.438;2023-07-13T01:57:44;16.39;75.45
13091;DHT22;6611;52.604;13.438;2023-07-13T02:02:45;16.42;75.67
13091;DHT22;6611;52.604;13.438;2023-07-13T02:07:49;16.52;75.31
13091;DHT22;6611;52.604;13.438;2023-07-13T02:12:50;16.21;76.36
13091;DHT22;6611;52.604;13.438;2023-07-13T02:17:52;16.26;76.39
13091;DHT22;6611;52.604;13.438;2023-07-13T02:22:55;16.25;76.71
13091;DHT22;6611;52.604;13.438;2023-07-13T02:27:57;16.34;76.19
13091;DHT22;6611;52.604;13.438;2023-07-13T02:32:58;16.29;76.42
13091;DHT22;6611;52.604;13.438;2023-07-13T02:38:01;16.28;76.58
13091;DHT22;6611;52.604;13.438;2023-07-13T02:43:03;16.21;76.95
13091;DHT22;6611;52.604;13.438;2023-07-13T02:48:05;16.25;76.75
13091;DHT22;6611;52.604;13.438;2023-07-13T02:53:08;16.33;76.34
13091;DHT22;6611;52.604;13.438;2023-07-13T02:58:09;16.23;76.90
13091;DHT22;6611;52.604;13.438;2023-07-13T03:03:11;16.29;76.61
13091;DHT22;6611;52.604;13.438;2023-07-13T03:08:14;16.25;76.96
13091;DHT22;6611;52.604;13.438;2023-07-13T03:13:16;16.21;76.80
13091;DHT22;6611;52.604;13.438;2023-07-13T03:18:17;16.19;76.95
13091;DHT22;6611;52.604;13.438;2023-07-13T03:23:21;16.22;76.91
13091;DHT22;6611;52.604;13.438;2023-07-13T03:28:22;16.19;77.12
13091;DHT22;6611;52.604;13.438;2023-07-13T03:33:24;16.18;77.17
13091;DHT22;6611;52.604;13.438;2023-07-13T03:38:27;16.28;77.08
13091;DHT22;6611;52.604;13.438;2023-07-13T03:43:29;16.38;76.98
13091;DHT22;6611;52.604;13.438;2023-07-13T03:48:30;16.46;76.62
13091;DHT22;6611;52.604;13.438;2023-07-13T03:53:34;16.47;76.57
13091;DHT22;6611;52.604;13.438;2023-07-13T03:58:37;16.55;76.35
13091;DHT22;6611;52.604;13.438;2023-07-13T04:03:40;16.61;76.31
13091;DHT22;6611;52.604;13.438;2023-07-13T04:08:43;16.67;76.45
13091;DHT22;6611;52.604;13.438;2023-07-13T04:13:45;16.70;76.57
13091;DHT22;6611;52.604;13.438;2023-07-13T04:18:47;16.83;76.05
13091;DHT22;6611;52.604;13.438;2023-07-13T04:23:50;16.92;75.69
13091;DHT22;6611;52.604;13.438;2023-07-13T04:28:52;17.05;75.72
13091;DHT22;6611;52.604;13.438;2023-07-13T04:33:54;17.20;75.00
13091;DHT22;6611;52.604;13.438;2023-07-13T04:38:57;17.37;74.70
13091;DHT22;6611;52.604;13.438;2023-07-13T04:43:58;17.47;74.20
13091;DHT22;6611;52.604;13.438;2023-07-13T04:49:00;17.63;73.83
13091;DHT22;6611;52.604;13.438;2023-07-13T04:54:05;17.71;73.31
13091;DHT22;6611;52.604;13.438;2023-07-13T04:59:08;17.77;73.16
13091;DHT22;6611;52.604;13.438;2023-07-13T05:04:09;17.80;73.27
13091;DHT22;6611;52.604;13.438;2023-07-13T05:09:12;18.05;72.46
13091;DHT22;6611;52.604;13.438;2023-07-13T05:14:14;18.40;71.48
13091;DHT22;6611;52.604;13.438;2023-07-13T05:19:16;18.43;71.11
13091;DHT22;6611;52.604;13.438;2023-07-13T05:24:20;18.39;71.57
13091;DHT22;6611;52.604;13.438;2023-07-13T05:29:22;18.53;71.84
13091;DHT22;6611;52.604;13.438;2023-07-13T05:34:23;18.47;71.82
13091;DHT22;6611;52.604;13.438;2023-07-13T05:39:26;18.65;71.08
13091;DHT22;6611;52.604;13.438;2023-07-13T05:44:28;18.61;71.01
13091;DHT22;6611;52.604;13.438;2023-07-13T05:49:30;18.77;70.64
13091;DHT22;6611;52.604;13.438;2023-07-13T05:54:33;18.78;70.31
13091;DHT22;6611;52.604;13.438;2023-07-13T05:59:35;18.92;69.98
13091;DHT22;6611;52.604;13.438;2023-07-13T06:04:37;19.23;68.68
13091;DHT22;6611;52.604;13.438;2023-07-13T06:09:40;19.51;68.39
13091;DHT22;6611;52.604;13.438;2023-07-13T06:14:42;19.79;66.92
13091;DHT22;6611;52.604;13.438;2023-07-13T06:19:43;20.01;66.87
13091;DHT22;6611;52.604;13.438;2023-07-13T06:24:46;20.34;65.58
13091;DHT22;6611;52.604;13.438;2023-07-13T06:29:48;20.58;64.90
13091;DHT22;6611;52.604;13.438;2023-07-13T06:34:49;20.51;64.33
13091;DHT22;6611;52.604;13.438;2023-07-13T06:39:53;20.60;64.50
13091;DHT22;6611;52.604;13.438;2023-07-13T06:44:55;20.53;64.01
13091;DHT22;6611;52.604;13.438;2023-07-13T06:49:57;20.53;64.11
13091;DHT22;6611;52.604;13.438;2023-07-13T06:55:00;20.72;63.22
13091;DHT22;6611;52.604;13.438;2023-07-13T07:00:02;21.46;62.19
13091;DHT22;6611;52.604;13.438;2023-07-13T07:05:05;22.32;59.83
13091;DHT22;6611;52.604;13.438;2023-07-13T07:10:08;23.43;56.17
13091;DHT22;6611;52.604;13.438;2023-07-13T07:15:10;23.95;54.38
13091;DHT22;6611;52.604;13.438;2023-07-13T07:20:12;24.54;51.91
13091;DHT22;6611;52.604;13.438;2023-07-13T07:25:15;24.58;51.83
13091;DHT22;6611;52.604;13.438;2023-07-13T07:30:17;24.54;50.52
13091;DHT22;6611;52.604;13.438;2023-07-13T07:35:19;24.75;50.97
13091;DHT22;6611;52.604;13.438;2023-07-13T07:40:22;25.23;50.13
13091;DHT22;6611;52.604;13.438;2023-07-13T07:45:23;25.58;46.25
13091;DHT22;6611;52.604;13.438;2023-07-13T07:50:25;25.77;47.61
13091;DHT22;6611;52.604;13.438;2023-07-13T07:55:29;25.86;45.40
13091;DHT22;6611;52.604;13.438;2023-07-13T08:00:30;25.52;47.36
13091;DHT22;6611;52.604;13.438;2023-07-13T08:05:35;24.89;49.43
13091;DHT22;6611;52.604;13.438;2023-07-13T08:10:38;24.99;49.96
13091;DHT22;6611;52.604;13.438;2023-07-13T08:15:40;25.47;46.87
13091;DHT22;6611;52.604;13.438;2023-07-13T08:20:41;26.02;45.39
13091;DHT22;6611;52.604;13.438;2023-07-13T08:25:50;26.30;45.38
13091;DHT22;6611;52.604;13.438;2023-07-13T08:30:52;26.23;47.85
13091;DHT22;6611;52.604;13.438;2023-07-13T08:35:53;25.28;46.70
13091;DHT22;6611;52.604;13.438;2023-07-13T08:40:56;25.03;48.32
13091;DHT22;6611;52.604;13.438;2023-07-13T08:46:02;24.71;49.54
13091;DHT22;6611;52.604;13.438;2023-07-13T08:51:12;24.68;49.82
13091;DHT22;6611;52.604;13.438;2023-07-13T08:56:23;24.76;48.05
13091;DHT22;6611;52.604;13.438;2023-07-13T09:01:31;24.72;48.02
13091;DHT22;6611;52.604;13.438;2023-07-13T09:06:42;24.89;46.34
13091;DHT22;6611;52.604;13.438;2023-07-13T09:11:52;25.50;46.37
13091;DHT22;6611;52.604;13.438;2023-07-13T09:16:55;25.79;46.12
13091;DHT22;6611;52.604;13.438;2023-07-13T09:21:57;25.62;44.67
13091;DHT22;6611;52.604;13.438;2023-07-13T09:27:05;25.58;48.06
13091;DHT22;6611;52.604;13.438;2023-07-13T09:32:12;25.85;44.75
13091;DHT22;6611;52.604;13.438;2023-07-13T09:37:16;26.26;45.04
13091;DHT22;6611;52.604;13.438;2023-07-13T09:42:21;26.65;44.69
13091;DHT22;6611;52.604;13.438;2023-07-13T09:47:25;26.48;43.71
13091;DHT22;6611;52.604;13.438;2023-07-13T09:52:39;26.61;43.90
13091;DHT22;6611;52.604;13.438;2023-07-13T09:57:46;27.14;42.14
13091;DHT22;6611;52.604;13.438;2023-07-13T10:02:58;27.19;42.53
13091;DHT22;6611;52.604;13.438;2023-07-13T10:08:00;27.00;41.52
13091;DHT22;6611;52.604;13.438;2023-07-13T10:13:03;27.40;41.88
13091;DHT22;6611;52.604;13.438;2023-07-13T10:18:08;27.36;41.99
13091;DHT22;6611;52.604;13.438;2023-07-13T10:23:15;26.44;41.48
13091;DHT22;6611;52.604;13.438;2023-07-13T10:28:28;25.69;42.96
13091;DHT22;6611;52.604;13.438;2023-07-13T10:33:30;25.38;43.65
13091;DHT22;6611;52.604;13.438;2023-07-13T10:38:32;25.28;45.37
13091;DHT22;6611;52.604;13.438;2023-07-13T10:43:39;25.62;45.73
13091;DHT22;6611;52.604;13.438;2023-07-13T10:48:45;26.29;44.96
13091;DHT22;6611;52.604;13.438;2023-07-13T10:54:18;26.51;43.45
13091;DHT22;6611;52.604;13.438;2023-07-13T10:59:27;26.76;43.06
13091;DHT22;6611;52.604;13.438;2023-07-13T11:04:40;26.78;42.51
13091;DHT22;6611;52.604;13.438;2023-07-13T11:09:43;27.00;40.51
13091;DHT22;6611;52.604;13.438;2023-07-13T11:15:04;27.29;41.34
13091;DHT22;6611;52.604;13.438;2023-07-13T11:20:22;27.64;39.85
13091;DHT22;6611;52.604;13.438;2023-07-13T11:25:28;27.53;38.77
13091;DHT22;6611;52.604;13.438;2023-07-13T11:30:38;27.64;38.33
13091;DHT22;6611;52.604;13.438;2023-07-13T11:35:51;27.66;37.37
13091;DHT22;6611;52.604;13.438;2023-07-13T11:40:54;27.89;37.53
13091;DHT22;6611;52.604;13.438;2023-07-13T11:45:57;28.09;38.09
13091;DHT22;6611;52.604;13.438;2023-07-13T11:51:02;27.96;37.62
13091;DHT22;6611;52.604;13.438;2023-07-13T11:56:05;28.00;36.80
13091;DHT22;6611;52.604;13.438;2023-07-13T12:01:17;28.02;37.21
13091;DHT22;6611;52.604;13.438;2023-07-13T12:06:25;27.99;39.40
13091;DHT22;6611;52.604;13.438;2023-07-13T12:11:28;28.09;37.87
13091;DHT22;6611;52.604;13.438;2023-07-13T12:16:33;28.36;37.45
13091;DHT22;6611;52.604;13.438;2023-07-13T12:21:37;27.68;36.65
13091;DHT22;6611;52.604;13.438;2023-07-13T12:26:40;27.36;38.88
13091;DHT22;6611;52.604;13.438;2023-07-13T12:31:44;27.47;38.35
13091;DHT22;6611;52.604;13.438;2023-07-13T12:36:48;27.29;37.76
13091;DHT22;6611;52.604;13.438;2023-07-13T12:41:52;27.19;38.90
13091;DHT22;6611;52.604;13.438;2023-07-13T12:46:58;27.10;39.03
13091;DHT22;6611;52.604;13.438;2023-07-13T12:52:01;27.43;39.04
13091;DHT22;6611;52.604;13.438;2023-07-13T12:57:04;27.34;39.06
13091;DHT22;6611;52.604;13.438;2023-07-13T13:02:22;26.92;38.66
13091;DHT22;6611;52.604;13.438;2023-07-13T13:07:27;26.69;39.34
13091;DHT22;6611;52.604;13.438;2023-07-13T13:12:29;27.13;39.78
13091;DHT22;6611;52.604;13.438;2023-07-13T13:17:34;27.41;38.68
13091;DHT22;6611;52.604;13.438;2023-07-13T13:22:35;26.85;38.01
13091;DHT22;6611;52.604;13.438;2023-07-13T13:27:38;26.78;40.35
13091;DHT22;6611;52.604;13.438;2023-07-13T13:32:43;26.81;39.41
13091;DHT22;6611;52.604;13.438;2023-07-13T13:37:46;26.78;40.87
13091;DHT22;6611;52.604;13.438;2023-07-13T13:42:50;26.76;39.00
13091;DHT22;6611;52.604;13.438;2023-07-13T13:47:55;26.40;39.74
13091;DHT22;6611;52.604;13.438;2023-07-13T13:52:56;26.36;40.73
13091;DHT22;6611;52.604;13.438;2023-07-13T13:57:58;26.43;41.55
13091;DHT22;6611;52.604;13.438;2023-07-13T14:03:01;26.69;40.59
13091;DHT22;6611;52.604;13.438;2023-07-13T14:08:03;26.96;42.04
13091;DHT22;6611;52.604;13.438;2023-07-13T14:13:16;26.81;39.04
13091;DHT22;6611;52.604;13.438;2023-07-13T14:18:20;26.34;39.16
13091;DHT22;6611;52.604;13.438;2023-07-13T14:23:22;26.07;40.06
13091;DHT22;6611;52.604;13.438;2023-07-13T14:28:24;25.99;41.04
13091;DHT22;6611;52.604;13.438;2023-07-13T14:33:28;26.16;40.45
13091;DHT22;6611;52.604;13.438;2023-07-13T14:38:30;26.16;40.40
13091;DHT22;6611;52.604;13.438;2023-07-13T14:43:32;26.31;40.98
13091;DHT22;6611;52.604;13.438;2023-07-13T14:48:36;26.26;39.48
13091;DHT22;6611;52.604;13.438;2023-07-13T14:53:38;26.14;39.09
13091;DHT22;6611;52.604;13.438;2023-07-13T14:58:40;26.09;41.82
13091;DHT22;6611;52.604;13.438;2023-07-13T15:03:46;26.29;41.04
13091;DHT22;6611;52.604;13.438;2023-07-13T15:08:48;26.30;39.02
13091;DHT22;6611;52.604;13.438;2023-07-13T15:13:50;26.37;38.63
13091;DHT22;6611;52.604;13.438;2023-07-13T15:18:53;26.20;39.05
13091;DHT22;6611;52.604;13.438;2023-07-13T15:23:55;26.33;39.92
13091;DHT22;6611;52.604;13.438;2023-07-13T15:28:57;26.31;38.67
13091;DHT22;6611;52.604;13.438;2023-07-13T15:34:00;26.30;38.71
13091;DHT22;6611;52.604;13.438;2023-07-13T15:39:02;26.26;38.65
13091;DHT22;6611;52.604;13.438;2023-07-13T15:44:20;26.13;38.84
13091;DHT22;6611;52.604;13.438;2023-07-13T15:49:25;26.02;39.47
13091;DHT22;6611;52.604;13.438;2023-07-13T15:54:26;25.74;40.65
13091;DHT22;6611;52.604;13.438;2023-07-13T15:59:28;25.81;40.57
13091;DHT22;6611;52.604;13.438;2023-07-13T16:04:31;25.78;40.18
13091;DHT22;6611;52.604;13.438;2023-07-13T16:09:33;25.57;40.17
13091;DHT22;6611;52.604;13.438;2023-07-13T16:14:34;25.45;40.30
13091;DHT22;6611;52.604;13.438;2023-07-13T16:19:38;25.48;40.75
13091;DHT22;6611;52.604;13.438;2023-07-13T16:24:40;25.58;42.68
13091;DHT22;6611;52.604;13.438;2023-07-13T16:29:41;25.61;40.76
13091;DHT22;6611;52.604;13.438;2023-07-13T16:34:44;25.47;41.52
13091;DHT22;6611;52.604;13.438;2023-07-13T16:39:48;25.26;41.30
13091;DHT22;6611;52.604;13.438;2023-07-13T16:44:53;24.92;41.92
13091;DHT22;6611;52.604;13.438;2023-07-13T16:49:58;24.65;41.69
13091;DHT22;6611;52.604;13.438;2023-07-13T16:54:59;24.51;42.61
13091;DHT22;6611;52.604;13.438;2023-07-13T17:00:01;24.33;43.27
13091;DHT22;6611;52.604;13.438;2023-07-13T17:05:18;24.02;49.28
13091;DHT22;6611;52.604;13.438;2023-07-13T17:10:21;22.24;61.60
13091;DHT22;6611;52.604;13.438;2023-07-13T17:15:33;20.75;68.20
13091;DHT22;6611;52.604;13.438;2023-07-13T17:20:39;19.89;72.59
13091;DHT22;6611;52.604;13.438;2023-07-13T17:25:46;19.51;74.22
13091;DHT22;6611;52.604;13.438;2023-07-13T17:30:50;19.24;77.12
13091;DHT22;6611;52.604;13.438;2023-07-13T17:35:54;19.03;76.27
13091;DHT22;6611;52.604;13.438;2023-07-13T17:40:56;18.91;76.15
13091;DHT22;6611;52.604;13.438;2023-07-13T17:45:58;18.63;77.00
13091;DHT22;6611;52.604;13.438;2023-07-13T17:51:02;18.53;78.49
13091;DHT22;6611;52.604;13.438;2023-07-13T17:56:04;18.43;79.31
13091;DHT22;6611;52.604;13.438;2023-07-13T18:01:09;18.15;79.57
13091;DHT22;6611;52.604;13.438;2023-07-13T18:06:14;17.97;79.56
13091;DHT22;6611;52.604;13.438;2023-07-13T18:11:17;17.75;80.28
13091;DHT22;6611;52.604;13.438;2023-07-13T18:16:22;17.73;81.23
13091;DHT22;6611;52.604;13.438;2023-07-13T18:21:30;17.88;82.39
13091;DHT22;6611;52.604;13.438;2023-07-13T18:26:31;17.97;81.37
13091;DHT22;6611;52.604;13.438;2023-07-13T18:31:35;17.91;81.61
13091;DHT22;6611;52.604;13.438;2023-07-13T18:36:38;18.01;81.64
13091;DHT22;6611;52.604;13.438;2023-07-13T18:41:40;18.08;81.86
13091;DHT22;6611;52.604;13.438;2023-07-13T18:46:41;17.91;80.81
13091;DHT22;6611;52.604;13.438;2023-07-13T18:51:44;17.91;81.76
13091;DHT22;6611;52.604;13.438;2023-07-13T18:56:47;17.85;82.34
13091;DHT22;6611;52.604;13.438;2023-07-13T19:01:49;17.89;82.89
13091;DHT22;6611;52.604;13.438;2023-07-13T19:06:52;17.81;83.67
13091;DHT22;6611;52.604;13.438;2023-07-13T19:11:54;17.81;83.25
13091;DHT22;6611;52.604;13.438;2023-07-13T19:16:56;17.78;83.11
13091;DHT22;6611;52.604;13.438;2023-07-13T19:21:59;17.70;83.61
13091;DHT22;6611;52.604;13.438;2023-07-13T19:27:03;17.60;83.94
13091;DHT22;6611;52.604;13.438;2023-07-13T19:32:06;17.51;84.23
13091;DHT22;6611;52.604;13.438;2023-07-13T19:37:17;17.47;83.74
13091;DHT22;6611;52.604;13.438;2023-07-13T19:42:23;17.37;84.09
13091;DHT22;6611;52.604;13.438;2023-07-13T19:47:25;17.36;83.58
13091;DHT22;6611;52.604;13.438;2023-07-13T19:52:28;17.25;83.98
13091;DHT22;6611;52.604;13.438;2023-07-13T19:57:30;17.18;84.42
13091;DHT22;6611;52.604;13.438;2023-07-13T20:02:32;17.16;84.26
13091;DHT22;6611;52.604;13.438;2023-07-13T20:07:35;17.09;84.95
13091;DHT22;6611;52.604;13.438;2023-07-13T20:12:38;17.04;85.49
13091;DHT22;6611;52.604;13.438;2023-07-13T20:17:39;17.04;85.01
13091;DHT22;6611;52.604;13.438;2023-07-13T20:22:44;17.08;85.73
13091;DHT22;6611;52.604;13.438;2023-07-13T20:27:46;17.05;85.47
13091;DHT22;6611;52.604;13.438;2023-07-13T20:32:48;17.05;85.38
13091;DHT22;6611;52.604;13.438;2023-07-13T20:37:51;17.01;85.29
13091;DHT22;6611;52.604;13.438;2023-07-13T20:42:53;16.98;85.49
13091;DHT22;6611;52.604;13.438;2023-07-13T20:47:59;16.91;85.74
13091;DHT22;6611;52.604;13.438;2023-07-13T20:53:04;16.88;85.64
13091;DHT22;6611;52.604;13.438;2023-07-13T20:58:06;16.71;85.51
13091;DHT22;6611;52.604;13.438;2023-07-13T21:03:16;16.70;85.67
13091;DHT22;6611;52.604;13.438;2023-07-13T21:08:22;16.68;85.13
13091;DHT22;6611;52.604;13.438;2023-07-13T21:13:24;16.64;85.29
13091;DHT22;6611;52.604;13.438;2023-07-13T21:18:25;16.59;85.04
13091;DHT22;6611;52.604;13.438;2023-07-13T21:23:31;16.61;84.85
13091;DHT22;6611;52.604;13.438;2023-07-13T21:28:34;16.60;85.24
13091;DHT22;6611;52.604;13.438;2023-07-13T21:33:37;16.59;86.20
13091;DHT22;6611;52.604;13.438;2023-07-13T21:38:42;16.63;86.10
13091;DHT22;6611;52.604;13.438;2023-07-13T21:43:45;16.61;85.85
13091;DHT22;6611;52.604;13.438;2023-07-13T21:48:47;16.63;85.94
13091;DHT22;6611;52.604;13.438;2023-07-13T21:53:51;16.61;86.16
13091;DHT22;6611;52.604;13.438;2023-07-13T21:58:53;16.60;86.06
13091;DHT22;6611;52.604;13.438;2023-07-13T22:03:56;16.63;85.81
13091;DHT22;6611;52.604;13.438;2023-07-13T22:08:59;16.60;85.61
13091;DHT22;6611;52.604;13.438;2023-07-13T22:14:00;16.52;86.31
13091;DHT22;6611;52.604;13.438;2023-07-13T22:19:10;16.57;86.06
13091;DHT22;6611;52.604;13.438;2023-07-13T22:24:15;16.57;86.55
13091;DHT22;6611;52.604;13.438;2023-07-13T22:29:19;16.56;86.52
13091;DHT22;6611;52.604;13.438;2023-07-13T22:34:21;16.56;86.48
13091;DHT22;6611;52.604;13.438;2023-07-13T22:39:28;16.56;86.77
13091;DHT22;6611;52.604;13.438;2023-07-13T22:44:32;16.57;86.35
13091;DHT22;6611;52.604;13.438;2023-07-13T22:49:34;16.61;86.61
13091;DHT22;6611;52.604;13.438;2023-07-13T22:54:38;16.64;85.99
13091;DHT22;6611;52.604;13.438;2023-07-13T22:59:41;16.53;86.18
13091;DHT22;6611;52.604;13.438;2023-07-13T23:04:42;16.45;86.13
13091;DHT22;6611;52.604;13.438;2023-07-13T23:09:48;16.43;85.69
13091;DHT22;6611;52.604;13.438;2023-07-13T23:14:50;16.36;85.51
13091;DHT22;6611;52.604;13.438;2023-07-13T23:19:51;16.21;85.22
13091;DHT22;6611;52.604;13.438;2023-07-13T23:24:55;16.12;85.31
13091;DHT22;6611;52.604;13.438;2023-07-13T23:29:57;16.09;85.50
13091;DHT22;6611;52.604;13.438;2023-07-13T23:34:58;16.06;85.45
13091;DHT22;6611;52.604;13.438;2023-07-13T23:40:04;16.02;85.27
13091;DHT22;6611;52.604;13.438;2023-07-13T23:45:12;16.00;84.81
13091;DHT22;6611;52.604;13.438;2023-07-13T23:50:16;15.91;85.13
13091;DHT22;6611;52.604;13.438;2023-07-13T23:55:22;15.88;85.02
